Time;durP1;ratioP1;P1;durP2;ratioP2;P2;SDS_P1;SDS_P2;PMS_P1;PMS_P2;Temp;Humidity;BMP_temperature;BMP_pressure;BME280_temperature;BME280_humidity;BME280_pressure;Samples;Min_cycle;Max_cycle;Signal;HPM_P1;HPM_P2
2021/07/04 00:01:19;;;;;;;405.23;369.35;;;;;;;;;;5229725;27;20024;-85
2021/07/04 00:03:54;;;;;;;484.10;442.02;;;;;;;;;;5226221;27;20066;-86
2021/07/04 00:06:44;;;;;;;459.37;418.97;;;;;;;;;;5204415;27;20142;-87
2021/07/04 00:09:34;;;;;;;675.92;610.70;;;;;;;;;;5211712;27;20618;-86
2021/07/04 00:12:04;;;;;;;595.35;538.12;;;;;;;;;;5219741;27;20069;-86
2021/07/04 00:15:24;;;;;;;601.22;546.37;;;;;;;;;;5166268;27;20033;-86
2021/07/04 00:22:01;;;;;;;;;;;;;;;;;;;;;
2021/07/04 00:25:12;;;;;;;666.23;600.27;;;;;;;;;;5230421;27;20034;-88
2021/07/04 00:27:50;;;;;;;491.77;447.75;;;;;;;;;;5247160;27;20048;-86
2021/07/04 00:31:03;;;;;;;382.15;351.05;;;;;;;;;;5247367;27;20018;-86
2021/07/04 00:33:34;;;;;;;502.58;458.83;;;;;;;;;;5247965;27;20095;-86
2021/07/04 00:36:13;;;;;;;604.67;552.13;;;;;;;;;;5227920;27;20022;-86
2021/07/04 00:39:05;;;;;;;330.20;303.98;;;;;;;;;;5230399;27;20432;-85
2021/07/04 00:42:11;;;;;;;630.70;571.78;;;;;;;;;;5240796;27;20009;-86
2021/07/04 00:44:54;;;;;;;685.75;620.00;;;;;;;;;;5235473;27;20333;-86
2021/07/04 00:47:38;;;;;;;313.60;290.75;;;;;;;;;;5243412;27;20125;-85
2021/07/04 00:50:20;;;;;;;404.15;371.42;;;;;;;;;;5237392;27;20396;-84
2021/07/04 00:53:09;;;;;;;429.50;396.23;;;;;;;;;;5250583;27;20042;-84
2021/07/04 00:56:00;;;;;;;490.17;449.55;;;;;;;;;;5228502;27;20045;-86
2021/07/04 00:59:11;;;;;;;511.88;470.33;;;;;;;;;;5231885;27;20062;-87
2021/07/04 01:01:59;;;;;;;649.62;592.28;;;;;;;;;;5232711;27;20140;-87
2021/07/04 01:04:35;;;;;;;644.88;585.05;;;;;;;;;;5228650;27;20026;-86
2021/07/04 01:07:10;;;;;;;465.02;427.20;;;;;;;;;;5254153;27;20076;-85
2021/07/04 01:10:02;;;;;;;708.35;644.58;;;;;;;;;;5248662;27;20041;-84
2021/07/04 01:12:39;;;;;;;437.73;405.05;;;;;;;;;;5257000;27;20557;-85
2021/07/04 01:15:36;;;;;;;563.53;514.17;;;;;;;;;;5229121;27;20022;-85
2021/07/04 01:18:16;;;;;;;545.60;500.87;;;;;;;;;;5232414;27;20015;-84
2021/07/04 01:21:04;;;;;;;;;;;;;;;;;;;;;
2021/07/04 01:23:52;;;;;;;;;;;;;;;;;;;;;
2021/07/04 01:26:34;;;;;;;698.47;635.28;;;;;;;;;;5246081;27;20071;-87
2021/07/04 01:29:09;;;;;;;509.25;466.58;;;;;;;;;;5234964;27;20422;-86
2021/07/04 01:31:46;;;;;;;;;;;;;;;;;;5252508;27;20650;-85
2021/07/04 01:34:37;;;;;;;593.65;541.53;;;;;;;;;;5227335;27;20094;-85
2021/07/04 01:37:12;;;;;;;628.25;573.42;;;;;;;;;;5217889;27;20153;-86
2021/07/04 01:40:28;;;;;;;;;;;;;;;;;;;;;
2021/07/04 01:43:07;;;;;;;594.37;544.45;;;;;;;;;;5218400;27;20026;-85
2021/07/04 01:45:54;;;;;;;577.15;527.60;;;;;;;;;;5242483;27;20078;-88
2021/07/04 01:48:29;;;;;;;442.75;410.40;;;;;;;;;;5231884;27;20095;-84
2021/07/04 01:51:22;;;;;;;755.33;681.85;;;;;;;;;;5223334;27;20025;-84
2021/07/04 01:55:00;;;;;;;591.12;542.50;;;;;;;;;;5244060;27;20025;-87
2021/07/04 01:57:51;;;;;;;607.03;556.13;;;;;;;;;;5182516;27;20573;-86
2021/07/04 02:03:38;;;;;;;718.08;655.63;;;;;;;;;;5246998;27;20044;-86
2021/07/04 02:06:37;;;;;;;597.80;548.03;;;;;;;;;;5216326;27;20466;-85
2021/07/04 02:09:12;;;;;;;493.70;454.65;;;;;;;;;;5192194;27;20073;-84
2021/07/04 02:12:12;;;;;;;674.45;618.80;;;;;;;;;;5128024;27;20027;-86
2021/07/04 02:15:29;;;;;;;628.20;577.47;;;;;;;;;;5151378;27;20116;-85
2021/07/04 02:18:06;;;;;;;554.97;509.63;;;;;;;;;;5140891;27;20672;-87
2021/07/04 02:21:11;;;;;;;728.53;662.15;;;;;;;;;;5137558;27;20529;-87
2021/07/04 02:24:07;;;;;;;523.80;480.67;;;;;;;;;;5145705;27;20037;-88
2021/07/04 02:27:07;;;;;;;684.15;624.05;;;;;;;;;;5125647;27;20139;-87
2021/07/04 02:29:56;;;;;;;633.20;581.58;;;;;;;;;;5112122;27;20518;-87
2021/07/04 02:32:51;;;;;;;669.67;605.75;;;;;;;;;;5146605;27;20037;-87
2021/07/04 02:35:33;;;;;;;758.58;689.78;;;;;;;;;;5122025;27;20115;-89
2021/07/04 02:38:31;;;;;;;703.45;638.78;;;;;;;;;;5183763;27;20093;-87
2021/07/04 02:41:23;;;;;;;679.45;618.55;;;;;;;;;;5186179;27;20030;-87
2021/07/04 02:44:24;;;;;;;760.67;689.20;;;;;;;;;;5183455;27;20026;-88
2021/07/04 02:47:23;;;;;;;647.50;593.35;;;;;;;;;;5178328;27;20202;-83
2021/07/04 02:50:21;;;;;;;740.80;672.92;;;;;;;;;;5216794;27;20195;-85
2021/07/04 02:52:59;;;;;;;595.90;547.03;;;;;;;;;;5246498;27;20061;-87
2021/07/04 02:55:54;;;;;;;656.87;602.88;;;;;;;;;;5227506;27;20404;-86
2021/07/04 02:58:34;;;;;;;696.70;630.33;;;;;;;;;;5248359;27;20073;-89
2021/07/04 03:01:44;;;;;;;533.47;490.52;;;;;;;;;;5146855;27;20066;-85
2021/07/04 03:04:43;;;;;;;692.80;628.00;;;;;;;;;;5208581;27;20038;-85
2021/07/04 03:07:42;;;;;;;644.58;578.95;;;;;;;;;;5228954;27;20448;-89
2021/07/04 03:16:29;;;;;;;732.45;656.08;;;;;;;;;;5245083;27;20099;-86
2021/07/04 03:19:33;;;;;;;520.62;477.05;;;;;;;;;;5208257;27;20132;-85
2021/07/04 04:17:41;;;;;;;704.47;631.95;;;;;;;;;;5270254;27;20072;-86
2021/07/04 04:20:14;;;;;;;735.92;660.00;;;;;;;;;;5240740;27;20197;-86
2021/07/04 04:22:55;;;;;;;640.95;573.28;;;;;;;;;;5233967;27;20395;-88
2021/07/04 04:25:34;;;;;;;717.10;639.58;;;;;;;;;;5252016;27;20073;-87
2021/07/04 04:28:10;;;;;;;581.65;523.95;;;;;;;;;;5241232;27;20238;-85
2021/07/04 04:30:45;;;;;;;706.83;631.13;;;;;;;;;;5251768;27;20032;-87
2021/07/04 04:33:22;;;;;;;647.30;582.30;;;;;;;;;;5256729;27;20028;-88
2021/07/04 04:36:40;;;;;;;694.10;620.15;;;;;;;;;;5266224;27;20026;-86
2021/07/04 04:39:20;;;;;;;605.58;545.38;;;;;;;;;;5255670;27;20017;-88
2021/07/04 04:42:15;;;;;;;;;;;;;;;;;;;;;
2021/07/04 04:45:12;;;;;;;640.22;580.33;;;;;;;;;;5268510;27;20050;-85
2021/07/04 04:48:01;;;;;;;651.50;592.10;;;;;;;;;;5245893;27;20037;-85
2021/07/04 04:50:51;;;;;;;673.47;610.40;;;;;;;;;;5249253;27;20194;-86
2021/07/04 04:53:40;;;;;;;681.30;618.53;;;;;;;;;;5242447;27;20041;-86
2021/07/04 04:56:30;;;;;;;634.53;574.53;;;;;;;;;;5257329;27;20053;-86
2021/07/04 04:59:19;;;;;;;713.37;641.22;;;;;;;;;;5263036;27;20040;-86
2021/07/04 05:01:52;;;;;;;619.58;555.70;;;;;;;;;;5239585;27;20513;-84
2021/07/04 05:04:43;;;;;;;723.75;647.87;;;;;;;;;;5254831;27;20036;-87
2021/07/04 05:07:18;;;;;;;693.10;627.25;;;;;;;;;;5235923;27;20029;-86
2021/07/04 05:09:55;;;;;;;691.03;620.95;;;;;;;;;;5235120;27;20421;-85
2021/07/04 05:12:44;;;;;;;641.15;576.78;;;;;;;;;;5237107;27;20380;-89
2021/07/04 05:15:17;;;;;;;680.50;612.83;;;;;;;;;;5249469;27;20114;-87
2021/07/04 05:17:50;;;;;;;698.20;625.38;;;;;;;;;;5246287;27;20046;-84
2021/07/04 05:20:39;;;;;;;603.22;542.63;;;;;;;;;;5289588;27;20022;-90
2021/07/04 05:26:20;;;;;;;602.08;545.33;;;;;;;;;;5246100;27;20175;-85
2021/07/04 05:29:01;;;;;;;558.20;507.27;;;;;;;;;;5253622;27;20067;-89
2021/07/04 05:31:38;;;;;;;623.35;565.22;;;;;;;;;;5229717;27;20029;-87
2021/07/04 05:34:35;;;;;;;616.35;556.60;;;;;;;;;;5232404;27;20109;-90
2021/07/04 05:37:42;;;;;;;677.92;606.85;;;;;;;;;;5277938;27;20041;-86
2021/07/04 05:40:34;;;;;;;621.10;558.95;;;;;;;;;;5255576;27;20025;-85
2021/07/04 05:46:52;;;;;;;;;;;;;;;;;;;;;
2021/07/04 05:49:46;;;;;;;679.78;609.55;;;;;;;;;;5161544;27;20416;-85
2021/07/04 05:52:41;;;;;;;720.47;646.35;;;;;;;;;;5144179;27;20496;-86
2021/07/04 05:55:22;;;;;;;692.28;622.03;;;;;;;;;;5212386;27;20088;-85
2021/07/04 05:58:06;;;;;;;584.13;529.62;;;;;;;;;;5230116;27;20022;-86
2021/07/04 06:01:04;;;;;;;661.80;597.75;;;;;;;;;;5233735;27;20040;-88
2021/07/04 06:03:52;;;;;;;562.22;513.28;;;;;;;;;;5250826;27;20021;-85
2021/07/04 06:06:27;;;;;;;486.52;445.30;;;;;;;;;;5250426;27;20052;-84
2021/07/04 06:09:08;;;;;;;457.67;420.62;;;;;;;;;;5254233;27;20061;-86
2021/07/04 06:12:14;;;;;;;579.17;523.88;;;;;;;;;;5232845;27;20077;-87
2021/07/04 06:15:26;;;;;;;535.17;488.40;;;;;;;;;;5245825;27;20046;-88
2021/07/04 06:18:24;;;;;;;568.37;516.35;;;;;;;;;;5260777;27;20319;-88
2021/07/04 06:21:32;;;;;;;437.60;401.50;;;;;;;;;;5246209;27;20045;-87
2021/07/04 06:24:24;;;;;;;532.47;487.20;;;;;;;;;;5279683;27;20017;-88
2021/07/04 06:30:29;;;;;;;606.85;554.95;;;;;;;;;;5266948;27;20158;-86
2021/07/04 06:33:31;;;;;;;703.97;635.42;;;;;;;;;;5273431;27;20430;-85
2021/07/04 06:36:25;;;;;;;604.58;553.58;;;;;;;;;;5240388;27;20411;-86
2021/07/04 06:46:31;;;;;;;631.45;578.75;;;;;;;;;;5200457;27;20021;-87
2021/07/04 06:49:08;;;;;;;635.10;578.45;;;;;;;;;;5157885;27;20122;-85
2021/07/04 06:51:50;;;;;;;539.85;494.67;;;;;;;;;;5182287;27;20034;-86
2021/07/04 06:54:59;;;;;;;563.47;512.47;;;;;;;;;;5158701;27;20077;-86
2021/07/04 06:58:09;;;;;;;628.62;567.10;;;;;;;;;;5131744;27;20052;-86
2021/07/04 07:00:51;;;;;;;556.17;506.33;;;;;;;;;;5114957;27;20059;-87
2021/07/04 07:03:33;;;;;;;740.28;658.40;;;;;;;;;;5103392;27;20042;-87
2021/07/04 07:06:34;;;;;;;730.17;658.72;;;;;;;;;;5111402;27;20047;-88
2021/07/04 07:09:19;;;;;;;631.60;567.15;;;;;;;;;;5095770;27;20039;-85
2021/07/04 07:11:56;;;;;;;578.30;525.25;;;;;;;;;;5105244;27;20027;-88
2021/07/04 07:17:59;;;;;;;705.97;634.72;;;;;;;;;;5201701;27;20495;-88
2021/07/04 07:21:06;;;;;;;696.10;626.63;;;;;;;;;;5207558;27;20429;-87
2021/07/04 07:24:03;;;;;;;757.08;678.42;;;;;;;;;;5229733;27;20032;-86
2021/07/04 07:27:14;;;;;;;706.97;636.40;;;;;;;;;;5137657;27;20011;-86
2021/07/04 07:30:20;;;;;;;;;;;;;;;;;;;;;
2021/07/04 07:36:36;;;;;;;719.60;648.97;;;;;;;;;;4956938;28;20155;-84
2021/07/04 07:39:52;;;;;;;621.17;564.13;;;;;;;;;;4985966;28;20024;-86
2021/07/04 07:43:33;;;;;;;610.22;553.47;;;;;;;;;;5101486;28;20458;-86
2021/07/04 07:47:19;;;;;;;;;;;;;;;;;;;;;
2021/07/04 07:50:14;;;;;;;722.20;648.70;;;;;;;;;;5204717;27;20027;-86
2021/07/04 08:00:14;;;;;;;746.83;671.12;;;;;;;;;;5214344;27;20018;-86
2021/07/04 08:06:26;;;;;;;619.55;562.50;;;;;;;;;;5266700;27;20057;-87
2021/07/04 08:09:31;;;;;;;726.05;653.10;;;;;;;;;;5265409;27;20013;-87
2021/07/04 08:12:39;;;;;;;617.25;556.83;;;;;;;;;;5241293;27;20030;-86
2021/07/04 08:15:28;;;;;;;737.35;661.65;;;;;;;;;;5248439;27;20673;-83
2021/07/04 08:17:58;;;;;;;815.08;707.53;;;;;;;;;;5272846;27;20022;-84
2021/07/04 08:20:27;;;;;;;762.67;685.90;;;;;;;;;;5271662;27;20037;-85
2021/07/04 08:22:55;;;;;;;831.25;717.03;;;;;;;;;;5271543;27;20050;-84
2021/07/04 08:25:24;;;;;;;827.62;738.25;;;;;;;;;;5267145;27;20053;-85
2021/07/04 08:27:52;;;;;;;773.60;692.10;;;;;;;;;;5271377;27;20056;-84
2021/07/04 08:30:22;;;;;;;706.87;639.90;;;;;;;;;;5270260;27;20027;-85
2021/07/04 08:32:50;;;;;;;670.03;608.03;;;;;;;;;;5268384;27;20038;-85
2021/07/04 08:35:19;;;;;;;804.45;719.80;;;;;;;;;;5267360;27;20034;-85
2021/07/04 08:37:47;;;;;;;905.40;747.03;;;;;;;;;;5270937;27;20259;-85
2021/07/04 08:40:16;;;;;;;992.35;784.87;;;;;;;;;;5266433;27;20336;-85
2021/07/04 08:42:45;;;;;;;734.55;660.80;;;;;;;;;;5270461;27;20683;-85
2021/07/04 08:45:13;;;;;;;871.03;780.53;;;;;;;;;;5268785;27;20057;-84
2021/07/04 08:47:42;;;;;;;757.42;676.63;;;;;;;;;;5264201;27;20054;-84
2021/07/04 08:50:13;;;;;;;819.97;732.12;;;;;;;;;;5263108;27;20632;-85
2021/07/04 08:52:42;;;;;;;849.72;756.17;;;;;;;;;;5262358;27;20517;-85
2021/07/04 08:55:11;;;;;;;890.10;780.05;;;;;;;;;;5264502;27;20049;-85
2021/07/04 08:57:40;;;;;;;898.58;785.42;;;;;;;;;;5265426;27;20021;-85
2021/07/04 09:00:10;;;;;;;1064.85;831.63;;;;;;;;;;5264282;27;20020;-85
2021/07/04 09:02:39;;;;;;;935.80;772.17;;;;;;;;;;5262919;27;20455;-85
2021/07/04 09:05:08;;;;;;;1082.53;820.92;;;;;;;;;;5264354;27;20024;-85
2021/07/04 09:07:38;;;;;;;1009.13;792.63;;;;;;;;;;5264906;27;20494;-84
2021/07/04 09:10:12;;;;;;;992.20;790.95;;;;;;;;;;5264959;27;20067;-86
2021/07/04 09:12:48;;;;;;;810.95;707.30;;;;;;;;;;5264509;27;20097;-85
2021/07/04 09:15:18;;;;;;;1076.53;772.80;;;;;;;;;;5264723;27;20393;-86
2021/07/04 09:17:48;;;;;;;693.28;619.15;;;;;;;;;;5264826;27;20044;-86
2021/07/04 09:20:43;;;;;;;781.00;672.87;;;;;;;;;;5265130;27;20017;-85
2021/07/04 09:23:11;;;;;;;803.08;687.30;;;;;;;;;;5265443;27;20018;-85
2021/07/04 09:25:40;;;;;;;665.40;596.00;;;;;;;;;;5263975;27;20041;-86
2021/07/04 09:28:08;;;;;;;868.17;742.65;;;;;;;;;;5265446;27;20445;-86
2021/07/04 09:30:41;;;;;;;881.12;751.05;;;;;;;;;;5262778;27;20056;-86
2021/07/04 09:33:12;;;;;;;1000.30;800.30;;;;;;;;;;5263875;27;20053;-85
2021/07/04 09:35:41;;;;;;;649.08;584.00;;;;;;;;;;5264499;27;20041;-86
2021/07/04 09:38:17;;;;;;;644.85;580.47;;;;;;;;;;5264173;27;20102;-84
2021/07/04 09:40:47;;;;;;;862.85;767.90;;;;;;;;;;5263867;27;20071;-86
2021/07/04 09:43:18;;;;;;;953.50;769.62;;;;;;;;;;5265741;27;20021;-85
2021/07/04 09:45:56;;;;;;;1066.97;799.67;;;;;;;;;;5263209;27;20482;-86
2021/07/04 09:48:29;;;;;;;878.95;702.55;;;;;;;;;;5262809;27;20517;-86
2021/07/04 09:50:58;;;;;;;761.03;677.50;;;;;;;;;;5263457;27;20065;-86
2021/07/04 09:53:35;;;;;;;1035.75;756.00;;;;;;;;;;5245171;27;20078;-85
2021/07/04 09:56:20;;;;;;;777.95;634.70;;;;;;;;;;5263012;27;20364;-85
2021/07/04 09:58:51;;;;;;;903.63;721.72;;;;;;;;;;5266411;27;20396;-85
2021/07/04 10:01:39;;;;;;;860.13;719.15;;;;;;;;;;5261800;27;20407;-86
2021/07/04 10:04:24;;;;;;;1019.25;773.30;;;;;;;;;;5262489;27;20066;-86
2021/07/04 10:06:53;;;;;;;839.22;690.65;;;;;;;;;;5263419;27;20424;-86
2021/07/04 10:09:25;;;;;;;865.30;711.00;;;;;;;;;;5265625;27;20090;-86
2021/07/04 10:11:54;;;;;;;736.78;633.53;;;;;;;;;;5265411;27;20065;-85
2021/07/04 10:14:23;;;;;;;666.92;594.28;;;;;;;;;;5266130;27;20079;-85
2021/07/04 10:16:51;;;;;;;832.47;690.22;;;;;;;;;;5264433;27;20512;-86
2021/07/04 10:19:29;;;;;;;774.12;644.70;;;;;;;;;;5266106;27;20056;-85
2021/07/04 10:22:00;;;;;;;785.45;658.80;;;;;;;;;;5265485;27;20544;-85
2021/07/04 10:24:29;;;;;;;895.72;702.28;;;;;;;;;;5264831;27;20048;-86
2021/07/04 10:26:58;;;;;;;665.28;590.35;;;;;;;;;;5263078;27;20049;-85
2021/07/04 10:29:31;;;;;;;1014.00;736.70;;;;;;;;;;5265169;27;20113;-85
2021/07/04 10:32:07;;;;;;;772.97;631.67;;;;;;;;;;5265849;27;20200;-85
2021/07/04 10:34:47;;;;;;;836.35;685.42;;;;;;;;;;5264574;27;20048;-86
2021/07/04 10:37:16;;;;;;;707.70;615.58;;;;;;;;;;5266211;27;20044;-85
2021/07/04 10:40:05;;;;;;;810.03;690.90;;;;;;;;;;5265551;27;20054;-85
2021/07/04 10:42:43;;;;;;;569.58;513.53;;;;;;;;;;5264086;27;20020;-85
2021/07/04 10:45:31;;;;;;;739.80;659.80;;;;;;;;;;5264896;27;20064;-86
2021/07/04 10:48:18;;;;;;;651.53;580.20;;;;;;;;;;5266447;27;20013;-85
2021/07/04 10:51:06;;;;;;;761.08;680.95;;;;;;;;;;5268228;27;20067;-85
2021/07/04 10:53:46;;;;;;;906.72;730.60;;;;;;;;;;5270125;27;20351;-86
2021/07/04 10:56:33;;;;;;;712.80;639.00;;;;;;;;;;5268088;27;20025;-85
2021/07/04 10:59:07;;;;;;;627.30;562.00;;;;;;;;;;5270550;27;20630;-85
2021/07/04 11:01:49;;;;;;;634.00;571.72;;;;;;;;;;5270776;27;20057;-84
2021/07/04 11:04:33;;;;;;;813.53;715.80;;;;;;;;;;5269235;27;20026;-85
2021/07/04 11:07:02;;;;;;;;;;;;;;;;;;5272830;27;20026;-85
2021/07/04 11:09:49;;;;;;;685.05;612.15;;;;;;;;;;5272284;27;19967;-85
2021/07/04 11:12:36;;;;;;;566.03;515.45;;;;;;;;;;5268124;27;20033;-85
2021/07/04 11:15:14;;;;;;;893.53;764.63;;;;;;;;;;5270384;27;20033;-83
2021/07/04 11:18:00;;;;;;;797.25;706.97;;;;;;;;;;5272829;27;20053;-86
2021/07/04 11:20:28;;;;;;;775.90;693.33;;;;;;;;;;5273144;27;20014;-85
2021/07/04 11:23:08;;;;;;;785.05;699.38;;;;;;;;;;5273034;27;20041;-85
2021/07/04 11:25:45;;;;;;;784.35;699.67;;;;;;;;;;5251349;27;20072;-85
2021/07/04 11:28:18;;;;;;;620.95;560.55;;;;;;;;;;5273010;27;20022;-84
2021/07/04 11:31:03;;;;;;;719.78;647.37;;;;;;;;;;5270349;27;20060;-85
2021/07/04 11:33:37;;;;;;;791.53;704.75;;;;;;;;;;5271608;27;20036;-86
2021/07/04 11:36:29;;;;;;;726.53;650.72;;;;;;;;;;5252653;27;20028;-84
2021/07/04 11:38:57;;;;;;;604.72;544.60;;;;;;;;;;5271416;27;20022;-84
2021/07/04 11:41:35;;;;;;;635.47;572.50;;;;;;;;;;5270731;27;20053;-84
2021/07/04 11:44:08;;;;;;;608.55;550.78;;;;;;;;;;5267450;27;20094;-85
2021/07/04 11:46:42;;;;;;;345.63;316.38;;;;;;;;;;5273412;27;20013;-84
2021/07/04 11:49:11;;;;;;;;;;;;;;;;;;5274351;27;20470;-85
2021/07/04 11:51:53;;;;;;;831.58;710.20;;;;;;;;;;5274329;27;19933;-85
2021/07/04 11:54:28;;;;;;;769.90;689.72;;;;;;;;;;5272680;27;20607;-84
2021/07/04 11:57:29;;;;;;;818.88;731.70;;;;;;;;;;5270989;27;20040;-85
2021/07/04 11:59:53;;;;;;;846.78;754.40;;;;;;;;;;5272641;27;20030;-84
2021/07/04 12:02:22;;;;;;;853.85;730.45;;;;;;;;;;5273026;27;20384;-84
2021/07/04 12:04:51;;;;;;;902.20;771.17;;;;;;;;;;5270441;27;20025;-85
2021/07/04 12:07:23;;;;;;;916.40;769.33;;;;;;;;;;5274699;27;20065;-85
2021/07/04 12:09:54;;;;;;;848.35;758.35;;;;;;;;;;5271844;27;20075;-85
2021/07/04 12:12:30;;;;;;;978.37;771.95;;;;;;;;;;5272460;27;20456;-85
2021/07/04 12:14:59;;;;;;;950.78;771.20;;;;;;;;;;5268871;27;20041;-86
2021/07/04 12:17:32;;;;;;;907.83;760.37;;;;;;;;;;5273945;27;20373;-85
2021/07/04 12:20:02;;;;;;;798.78;711.67;;;;;;;;;;5273555;27;20127;-85
2021/07/04 12:22:32;;;;;;;1021.40;761.85;;;;;;;;;;5272362;27;20442;-84
2021/07/04 12:25:04;;;;;;;910.55;744.88;;;;;;;;;;5271387;27;20045;-85
2021/07/04 12:27:33;;;;;;;749.40;668.10;;;;;;;;;;5269248;27;20042;-85
2021/07/04 12:30:04;;;;;;;855.00;717.87;;;;;;;;;;5271277;27;20026;-85
2021/07/04 12:32:36;;;;;;;757.20;673.97;;;;;;;;;;5271770;27;20013;-85
2021/07/04 12:35:07;;;;;;;642.45;581.08;;;;;;;;;;5270798;27;20037;-84
2021/07/04 12:37:36;;;;;;;1032.22;810.42;;;;;;;;;;5256861;27;20020;-85
2021/07/04 12:40:08;;;;;;;723.60;652.20;;;;;;;;;;5273880;27;20013;-85
2021/07/04 12:42:40;;;;;;;1065.88;834.62;;;;;;;;;;5266093;27;20678;-86
2021/07/04 12:45:17;;;;;;;901.20;775.22;;;;;;;;;;5247544;27;20067;-85
2021/07/04 12:47:57;;;;;;;1022.30;823.10;;;;;;;;;;5269411;27;20053;-85
2021/07/04 12:50:36;;;;;;;1234.88;865.70;;;;;;;;;;5269877;27;20306;-85
2021/07/04 12:53:05;;;;;;;1122.68;869.30;;;;;;;;;;5269415;27;20037;-85
2021/07/04 12:55:35;;;;;;;1039.45;847.80;;;;;;;;;;5247445;27;20502;-85
2021/07/04 12:58:23;;;;;;;1207.22;860.78;;;;;;;;;;5270847;27;20055;-85
2021/07/04 13:00:53;;;;;;;966.00;827.10;;;;;;;;;;5270386;27;20025;-85
2021/07/04 13:03:40;;;;;;;1017.78;849.10;;;;;;;;;;5269685;27;20040;-86
2021/07/04 13:06:10;;;;;;;898.00;772.70;;;;;;;;;;5250484;27;20029;-86
2021/07/04 13:08:38;;;;;;;831.12;745.30;;;;;;;;;;5270179;27;20029;-86
2021/07/04 13:11:17;;;;;;;942.83;735.97;;;;;;;;;;5270701;27;20439;-86
2021/07/04 13:14:06;;;;;;;905.50;655.33;;;;;;;;;;5266723;27;20045;-85
2021/07/04 13:16:35;;;;;;;1020.67;776.17;;;;;;;;;;5261954;27;20064;-85
2021/07/04 13:19:18;;;;;;;959.80;726.22;;;;;;;;;;5269275;27;20071;-85
2021/07/04 13:21:46;;;;;;;788.50;705.00;;;;;;;;;;5268187;27;20039;-85
2021/07/04 13:24:25;;;;;;;959.53;777.50;;;;;;;;;;5269768;27;20081;-85
2021/07/04 13:26:54;;;;;;;709.05;636.35;;;;;;;;;;5269782;27;20010;-86
2021/07/04 13:29:25;;;;;;;815.72;686.45;;;;;;;;;;5268669;27;20056;-85
2021/07/04 13:32:08;;;;;;;833.17;744.05;;;;;;;;;;5271240;27;20382;-85
2021/07/04 13:34:38;;;;;;;806.65;722.90;;;;;;;;;;5269506;27;20080;-85
2021/07/04 13:37:17;;;;;;;1034.40;762.58;;;;;;;;;;5269786;27;20030;-85
2021/07/04 13:39:55;;;;;;;931.22;734.15;;;;;;;;;;5269573;27;20018;-86
2021/07/04 13:42:24;;;;;;;912.37;719.55;;;;;;;;;;5270250;27;20021;-85
2021/07/04 13:44:54;;;;;;;743.42;635.50;;;;;;;;;;5269371;27;20034;-85
2021/07/04 13:47:22;;;;;;;743.13;659.55;;;;;;;;;;5271534;27;20018;-85
2021/07/04 13:49:51;;;;;;;823.33;682.70;;;;;;;;;;5271221;27;20025;-85
2021/07/04 13:52:20;;;;;;;709.53;636.42;;;;;;;;;;5269813;27;20101;-85
2021/07/04 13:54:48;;;;;;;900.75;672.58;;;;;;;;;;5270980;27;20056;-86
2021/07/04 13:57:17;;;;;;;812.83;697.15;;;;;;;;;;5270368;27;20029;-85
2021/07/04 13:59:46;;;;;;;572.33;513.28;;;;;;;;;;5269318;27;20230;-85
2021/07/04 14:02:14;;;;;;;631.60;527.47;;;;;;;;;;5271795;27;20018;-85
2021/07/04 14:04:43;;;;;;;906.08;655.70;;;;;;;;;;5270185;27;20388;-85
2021/07/04 14:07:13;;;;;;;888.12;649.08;;;;;;;;;;5270634;27;20337;-86
2021/07/04 14:09:42;;;;;;;724.15;612.33;;;;;;;;;;5267397;27;20029;-85
2021/07/04 14:12:11;;;;;;;1054.00;737.30;;;;;;;;;;5270782;27;20840;-86
2021/07/04 14:14:39;;;;;;;578.78;521.05;;;;;;;;;;5270930;27;20381;-85
2021/07/04 14:17:08;;;;;;;900.17;723.50;;;;;;;;;;5268445;27;20452;-85
2021/07/04 14:19:37;;;;;;;866.35;710.45;;;;;;;;;;5268615;27;20044;-86
2021/07/04 14:22:06;;;;;;;786.35;663.30;;;;;;;;;;5268069;27;20052;-86
2021/07/04 14:24:34;;;;;;;900.75;695.62;;;;;;;;;;5270525;27;20455;-85
2021/07/04 14:27:04;;;;;;;913.28;710.42;;;;;;;;;;5270926;27;20142;-85
2021/07/04 14:29:34;;;;;;;751.50;630.50;;;;;;;;;;5271085;27;20108;-85
2021/07/04 14:32:03;;;;;;;771.85;629.03;;;;;;;;;;5271096;27;20040;-85
2021/07/04 14:34:31;;;;;;;1077.85;713.12;;;;;;;;;;5264479;27;20041;-86
2021/07/04 14:37:02;;;;;;;860.37;643.97;;;;;;;;;;5265406;27;20053;-85
2021/07/04 14:39:31;;;;;;;585.60;522.00;;;;;;;;;;5265710;27;20049;-86
2021/07/04 14:41:59;;;;;;;762.40;627.90;;;;;;;;;;5265956;27;20074;-86
2021/07/04 14:44:28;;;;;;;838.87;640.83;;;;;;;;;;5265878;27;20072;-85
2021/07/04 14:46:56;;;;;;;867.03;636.38;;;;;;;;;;5265564;27;20048;-85
2021/07/04 14:49:25;;;;;;;311.83;281.05;;;;;;;;;;5265753;27;20031;-85
2021/07/04 14:51:55;;;;;;;766.30;589.75;;;;;;;;;;5264918;27;20029;-85
2021/07/04 14:54:29;;;;;;;573.72;499.50;;;;;;;;;;5264693;27;20162;-85
2021/07/04 14:56:58;;;;;;;568.08;493.27;;;;;;;;;;5265186;27;20947;-86
2021/07/04 14:59:29;;;;;;;771.70;569.28;;;;;;;;;;5265724;27;20119;-85
2021/07/04 15:01:57;;;;;;;399.40;356.27;;;;;;;;;;5266210;27;20114;-85
2021/07/04 15:04:26;;;;;;;732.92;576.80;;;;;;;;;;5266489;27;20041;-85
2021/07/04 15:06:54;;;;;;;686.15;563.20;;;;;;;;;;5265194;27;20041;-85
2021/07/04 15:09:23;;;;;;;362.65;330.23;;;;;;;;;;5266780;27;20026;-84
2021/07/04 15:11:52;;;;;;;812.58;569.72;;;;;;;;;;5265364;27;20057;-86
2021/07/04 15:14:20;;;;;;;649.45;517.70;;;;;;;;;;5264465;27;20022;-85
2021/07/04 15:16:49;;;;;;;880.33;654.60;;;;;;;;;;5264661;27;20076;-85
2021/07/04 15:19:17;;;;;;;653.75;541.72;;;;;;;;;;5265618;27;20064;-85
2021/07/04 15:21:46;;;;;;;662.17;586.62;;;;;;;;;;5264913;27;20029;-85
2021/07/04 15:24:15;;;;;;;884.90;673.25;;;;;;;;;;5265438;27;20017;-85
2021/07/04 15:26:43;;;;;;;870.70;666.65;;;;;;;;;;5246210;27;20083;-85
2021/07/04 15:29:12;;;;;;;930.30;695.17;;;;;;;;;;5265318;27;20459;-85
2021/07/04 15:31:41;;;;;;;854.47;616.47;;;;;;;;;;5264013;27;20048;-84
2021/07/04 15:34:10;;;;;;;552.53;496.08;;;;;;;;;;5245659;27;20030;-86
2021/07/04 15:36:38;;;;;;;709.22;565.35;;;;;;;;;;5264971;27;20050;-86
2021/07/04 15:39:08;;;;;;;657.40;544.60;;;;;;;;;;5266080;27;20041;-85
2021/07/04 15:41:38;;;;;;;812.17;634.35;;;;;;;;;;5264245;27;20022;-85
2021/07/04 15:44:11;;;;;;;658.58;505.33;;;;;;;;;;5247579;27;20345;-85
2021/07/04 15:46:41;;;;;;;695.72;546.60;;;;;;;;;;5265362;27;20285;-84
2021/07/04 15:49:10;;;;;;;956.38;704.10;;;;;;;;;;5264055;27;20033;-84
2021/07/04 15:51:40;;;;;;;857.60;657.33;;;;;;;;;;5246396;27;20432;-84
2021/07/04 15:54:08;;;;;;;844.45;646.37;;;;;;;;;;5265357;27;20426;-84
2021/07/04 15:56:37;;;;;;;731.63;651.50;;;;;;;;;;5264972;27;20454;-84
2021/07/04 15:59:06;;;;;;;804.10;661.80;;;;;;;;;;5266287;27;20097;-84
2021/07/04 16:01:35;;;;;;;683.08;580.13;;;;;;;;;;5264080;27;20048;-84
2021/07/04 16:04:04;;;;;;;592.67;503.38;;;;;;;;;;5265038;27;20049;-84
2021/07/04 16:06:33;;;;;;;639.22;519.70;;;;;;;;;;5265163;27;20002;-84
2021/07/04 16:09:05;;;;;;;705.17;528.72;;;;;;;;;;5245574;27;20068;-84
2021/07/04 16:11:34;;;;;;;714.67;590.20;;;;;;;;;;5263683;27;20412;-84
2021/07/04 16:14:03;;;;;;;596.35;469.45;;;;;;;;;;5245679;27;20065;-84
2021/07/04 16:16:32;;;;;;;669.45;540.53;;;;;;;;;;5264512;27;20739;-87
2021/07/04 16:19:01;;;;;;;603.72;508.27;;;;;;;;;;5265877;27;20148;-84
2021/07/04 16:21:29;;;;;;;722.47;585.35;;;;;;;;;;5264942;27;20044;-85
2021/07/04 16:23:58;;;;;;;599.33;508.20;;;;;;;;;;5264837;27;20053;-85
2021/07/04 16:26:27;;;;;;;529.85;455.87;;;;;;;;;;5264607;27;20520;-85
2021/07/04 16:28:55;;;;;;;731.00;565.05;;;;;;;;;;5266291;27;20387;-84
2021/07/04 16:31:24;;;;;;;274.92;245.52;;;;;;;;;;5264046;27;20043;-84
2021/07/04 16:33:53;;;;;;;705.80;595.78;;;;;;;;;;5265695;27;20033;-85
2021/07/04 16:36:21;;;;;;;595.42;524.75;;;;;;;;;;5264448;27;20071;-84
2021/07/04 16:38:58;;;;;;;689.47;578.40;;;;;;;;;;5265333;27;20041;-84
2021/07/04 16:41:26;;;;;;;545.55;454.30;;;;;;;;;;5264860;27;20374;-84
2021/07/04 16:43:55;;;;;;;584.33;487.45;;;;;;;;;;5265265;27;20037;-85
2021/07/04 16:46:24;;;;;;;567.70;474.62;;;;;;;;;;5262871;27;20337;-85
2021/07/04 16:48:53;;;;;;;620.80;525.65;;;;;;;;;;5265445;27;20014;-85
2021/07/04 16:51:21;;;;;;;653.95;557.88;;;;;;;;;;5264964;27;20017;-84
2021/07/04 16:53:50;;;;;;;713.53;615.47;;;;;;;;;;5245136;27;20062;-85
2021/07/04 16:56:19;;;;;;;710.58;596.67;;;;;;;;;;5269073;27;20059;-85